Time;durP1;ratioP1;P1;durP2;ratioP2;P2;SDS_P1;SDS_P2;PMS_P1;PMS_P2;Temp;Humidity;BMP_temperature;BMP_pressure;BME280_temperature;BME280_humidity;BME280_pressure;Samples;Min_cycle;Max_cycle;Signal;HPM_P1;HPM_P2
2022/03/02 00:01:47;;;;;;;8.93;6.70;;;4.90;64.10;;;;;;10392323;28;20221;-75
2022/03/02 00:06:48;;;;;;;9.07;7.00;;;4.80;64.10;;;;;;10400145;28;20868;-76
2022/03/02 00:11:49;;;;;;;12.97;7.97;;;4.60;64.60;;;;;;10397693;28;20224;-75
2022/03/02 00:16:49;;;;;;;14.47;9.33;;;4.60;66.20;;;;;;10391917;28;20233;-75
2022/03/02 00:21:50;;;;;;;12.40;8.37;;;4.50;68.40;;;;;;10393981;28;20229;-75
2022/03/02 00:26:51;;;;;;;14.10;8.80;;;4.50;69.20;;;;;;10392473;28;20232;-75
2022/03/02 00:31:52;;;;;;;10.13;8.17;;;4.40;69.80;;;;;;10426004;28;20240;-78
2022/03/02 00:36:52;;;;;;;11.77;8.50;;;4.30;70.00;;;;;;10406160;28;20221;-74
2022/03/02 00:41:53;;;;;;;13.43;8.90;;;4.20;70.30;;;;;;10391367;28;20597;-74
2022/03/02 00:46:54;;;;;;;12.87;8.47;;;4.00;71.00;;;;;;10396757;28;20272;-75
2022/03/02 00:51:55;;;;;;;13.13;7.87;;;3.90;71.50;;;;;;10397817;28;20223;-74
2022/03/02 00:56:56;;;;;;;11.07;8.20;;;3.80;71.90;;;;;;10431186;28;20240;-75
2022/03/02 01:02:03;;;;;;;11.80;7.83;;;3.70;71.70;;;;;;10424129;28;20311;-74
2022/03/02 01:07:04;;;;;;;11.73;8.47;;;3.60;72.00;;;;;;10403809;28;20224;-75
2022/03/02 01:12:05;;;;;;;10.37;7.70;;;3.50;72.80;;;;;;10395133;28;20425;-74
2022/03/02 01:17:06;;;;;;;12.43;7.97;;;3.30;73.90;;;;;;10427583;28;20745;-75
2022/03/02 01:22:07;;;;;;;11.70;8.03;;;3.20;74.70;;;;;;10429037;28;20220;-74
2022/03/02 01:27:07;;;;;;;13.23;8.30;;;3.10;75.50;;;;;;10422192;28;20229;-75
2022/03/02 01:32:10;;;;;;;11.20;7.90;;;3.10;75.30;;;;;;10418584;28;20278;-76
2022/03/02 01:37:11;;;;;;;15.00;8.10;;;3.00;76.10;;;;;;10396352;28;20236;-75
2022/03/02 01:42:14;;;;;;;10.90;7.60;;;2.90;76.30;;;;;;10397191;28;20287;-76
2022/03/02 01:47:15;;;;;;;12.10;7.97;;;2.90;76.80;;;;;;10387852;28;20228;-76
2022/03/02 01:52:16;;;;;;;11.43;7.60;;;2.80;77.80;;;;;;10394335;28;20235;-76
2022/03/02 01:57:16;;;;;;;12.50;8.23;;;2.80;78.00;;;;;;10387902;28;20228;-76
2022/03/02 02:02:17;;;;;;;14.53;8.57;;;2.70;78.30;;;;;;10393928;28;20653;-75
2022/03/02 02:07:18;;;;;;;12.63;8.20;;;2.70;78.30;;;;;;10385372;28;20658;-75
2022/03/02 02:12:18;;;;;;;12.03;7.83;;;2.80;78.40;;;;;;10393972;28;20221;-76
2022/03/02 02:17:19;;;;;;;11.57;8.20;;;2.70;78.60;;;;;;10392087;28;20249;-76
2022/03/02 02:22:20;;;;;;;10.83;7.97;;;2.60;79.20;;;;;;10385679;28;20330;-76
2022/03/02 02:27:21;;;;;;;11.97;7.40;;;2.60;80.70;;;;;;10392987;28;20224;-75
2022/03/02 02:32:21;;;;;;;11.60;7.97;;;2.40;81.30;;;;;;10386213;28;20295;-75
2022/03/02 02:37:24;;;;;;;12.47;8.30;;;2.30;83.60;;;;;;10392751;28;20399;-76
2022/03/02 02:42:25;;;;;;;12.27;8.50;;;2.20;83.90;;;;;;10395371;28;20227;-76
2022/03/02 02:47:26;;;;;;;12.40;8.20;;;2.10;85.50;;;;;;10423430;28;20232;-76
2022/03/02 02:52:36;;;;;;;13.90;9.10;;;2.00;85.40;;;;;;10432582;28;20228;-75
2022/03/02 02:57:37;;;;;;;15.17;8.47;;;2.10;87.00;;;;;;10387860;28;20221;-75
2022/03/02 03:02:39;;;;;;;11.90;8.13;;;2.20;87.40;;;;;;10395525;28;20721;-74
2022/03/02 03:07:40;;;;;;;12.67;8.03;;;2.20;87.90;;;;;;10392370;28;20630;-77
2022/03/02 03:12:44;;;;;;;11.43;8.23;;;2.20;88.30;;;;;;10394085;28;20271;-77
2022/03/02 03:17:45;;;;;;;13.93;9.23;;;2.20;90.00;;;;;;10420883;28;20225;-76
2022/03/02 03:22:47;;;;;;;12.87;8.93;;;2.10;89.90;;;;;;10390886;28;20883;-76
2022/03/02 03:27:48;;;;;;;12.93;8.53;;;2.20;90.40;;;;;;10392526;28;20217;-76
2022/03/02 03:32:50;;;;;;;11.57;7.73;;;2.40;89.80;;;;;;10386802;28;20228;-74
2022/03/02 03:37:51;;;;;;;10.67;7.67;;;2.50;87.70;;;;;;10388508;28;20240;-75
2022/03/02 03:42:53;;;;;;;12.83;7.80;;;2.70;86.80;;;;;;10394774;28;20234;-75
2022/03/02 03:47:53;;;;;;;10.93;8.03;;;2.90;85.80;;;;;;10424414;28;20303;-76
2022/03/02 03:52:54;;;;;;;12.37;8.30;;;3.00;84.90;;;;;;10393028;28;20303;-76
2022/03/02 03:57:55;;;;;;;12.67;7.90;;;3.00;84.80;;;;;;10380199;28;20229;-75
2022/03/02 04:02:56;;;;;;;14.73;8.10;;;2.90;85.00;;;;;;10386319;28;20230;-75
2022/03/02 04:07:57;;;;;;;12.20;7.90;;;2.80;85.20;;;;;;10386538;28;20224;-75
2022/03/02 04:12:57;;;;;;;13.70;7.80;;;2.70;85.80;;;;;;10398362;28;20232;-75
2022/03/02 04:17:58;;;;;;;13.90;8.10;;;2.70;86.30;;;;;;10405560;28;20270;-75
2022/03/02 04:22:59;;;;;;;13.83;8.90;;;2.80;86.30;;;;;;10399092;28;20283;-75
2022/03/02 04:28:00;;;;;;;14.90;8.17;;;2.90;86.20;;;;;;10428372;28;20228;-76
2022/03/02 04:33:02;;;;;;;13.37;8.30;;;2.90;85.90;;;;;;10392925;28;20227;-76
2022/03/02 04:38:03;;;;;;;14.53;8.33;;;2.90;86.30;;;;;;10391152;28;20237;-75
2022/03/02 04:43:04;;;;;;;11.70;8.23;;;2.90;86.20;;;;;;10428761;28;20907;-76
2022/03/02 04:48:05;;;;;;;10.67;6.97;;;2.90;86.10;;;;;;10438827;28;20302;-75
2022/03/02 04:53:06;;;;;;;14.33;8.37;;;2.90;86.20;;;;;;10403184;28;20224;-76
2022/03/02 04:58:07;;;;;;;12.73;8.00;;;2.90;86.80;;;;;;10396921;28;20225;-76
2022/03/02 05:03:08;;;;;;;13.20;8.17;;;2.90;86.80;;;;;;10390894;28;20220;-76
2022/03/02 05:08:08;;;;;;;12.43;7.93;;;2.80;87.60;;;;;;10389020;28;20217;-75
2022/03/02 05:13:09;;;;;;;12.73;8.83;;;2.80;88.70;;;;;;10395693;28;20255;-76
2022/03/02 05:18:10;;;;;;;12.57;7.67;;;2.80;89.50;;;;;;10395768;28;20925;-75
2022/03/02 05:23:11;;;;;;;12.40;7.97;;;2.60;89.50;;;;;;10398691;28;20243;-77
2022/03/02 05:28:11;;;;;;;12.77;7.53;;;2.50;89.80;;;;;;10399990;28;20304;-77
2022/03/02 05:33:12;;;;;;;11.33;7.37;;;2.50;90.00;;;;;;10402860;28;20300;-76
2022/03/02 05:38:12;;;;;;;14.10;7.73;;;2.60;89.30;;;;;;10406693;28;20234;-73
2022/03/02 05:43:13;;;;;;;12.33;7.23;;;2.60;89.20;;;;;;10406521;28;20216;-75
2022/03/02 05:48:13;;;;;;;12.77;7.87;;;2.60;89.30;;;;;;10393091;28;20808;-75
2022/03/02 05:53:14;;;;;;;11.57;7.63;;;2.70;88.30;;;;;;10424404;28;20212;-76
2022/03/02 05:58:15;;;;;;;11.67;7.30;;;2.80;87.70;;;;;;10386158;28;20225;-75
2022/03/02 06:03:16;;;;;;;12.10;7.83;;;2.90;86.90;;;;;;10392973;28;20223;-75
2022/03/02 06:08:17;;;;;;;12.63;8.13;;;2.90;86.50;;;;;;10383083;28;20236;-75
2022/03/02 06:13:17;;;;;;;10.10;7.17;;;2.90;86.20;;;;;;10392521;28;20216;-77
2022/03/02 06:18:18;;;;;;;10.57;7.37;;;2.90;86.40;;;;;;10387151;28;20752;-76
2022/03/02 06:23:20;;;;;;;11.33;7.23;;;2.80;86.10;;;;;;10391036;28;20221;-74
2022/03/02 06:28:21;;;;;;;11.23;6.83;;;2.80;87.10;;;;;;10390417;28;20214;-74
2022/03/02 06:33:22;;;;;;;12.20;7.37;;;2.90;86.70;;;;;;10391330;28;20270;-74
2022/03/02 06:38:23;;;;;;;10.83;7.30;;;2.90;86.50;;;;;;10388985;28;20285;-75
2022/03/02 06:43:26;;;;;;;10.43;6.87;;;2.90;86.80;;;;;;10398232;28;20225;-74
2022/03/02 06:48:32;;;;;;;15.87;7.67;;;2.90;86.60;;;;;;10399049;28;20224;-75
2022/03/02 06:53:35;;;;;;;11.70;7.73;;;3.00;86.40;;;;;;10384567;28;20720;-75
2022/03/02 06:58:41;;;;;;;12.77;7.60;;;3.20;86.30;;;;;;10423215;28;20706;-75
2022/03/02 07:03:48;;;;;;;11.47;7.80;;;3.10;84.70;;;;;;10425881;28;20232;-76
2022/03/02 07:08:48;;;;;;;11.40;6.93;;;3.10;85.20;;;;;;10386690;28;20794;-75
2022/03/02 07:13:50;;;;;;;9.83;6.93;;;3.20;85.40;;;;;;10385367;28;20275;-74
2022/03/02 07:18:51;;;;;;;10.13;7.07;;;3.30;84.40;;;;;;10386966;28;20270;-75
2022/03/02 07:24:11;;;;;;;8.90;6.47;;;3.30;84.20;;;;;;10385773;28;20213;-75
2022/03/02 07:29:14;;;;;;;10.10;7.40;;;3.40;83.50;;;;;;10389391;28;20255;-75
2022/03/02 07:34:16;;;;;;;9.93;6.90;;;3.50;83.60;;;;;;10382732;28;20361;-75
2022/03/02 07:39:17;;;;;;;12.93;6.70;;;3.70;82.20;;;;;;10420549;28;20730;-76
2022/03/02 07:44:17;;;;;;;9.00;7.10;;;3.80;82.10;;;;;;10388941;28;20339;-75
2022/03/02 07:49:20;;;;;;;10.37;6.80;;;4.00;81.60;;;;;;10388958;28;20694;-75
2022/03/02 07:54:22;;;;;;;13.27;7.07;;;4.30;80.30;;;;;;10398804;28;20250;-76
2022/03/02 07:59:23;;;;;;;12.77;6.80;;;4.60;78.80;;;;;;10388717;28;20236;-75
2022/03/02 08:04:26;;;;;;;8.97;7.00;;;4.90;77.80;;;;;;10390439;28;20597;-77
2022/03/02 08:09:26;;;;;;;11.70;7.87;;;5.10;75.90;;;;;;10412875;28;20226;-76
2022/03/02 08:14:28;;;;;;;10.00;7.20;;;5.20;75.70;;;;;;10390586;28;20224;-75
2022/03/02 08:19:30;;;;;;;9.37;6.60;;;5.30;74.40;;;;;;10397054;28;20240;-74
2022/03/02 08:24:33;;;;;;;9.03;6.27;;;5.10;75.40;;;;;;10397745;28;20433;-75
2022/03/02 08:29:34;;;;;;;8.47;6.60;;;5.30;74.10;;;;;;10397278;28;20303;-76
2022/03/02 08:34:34;;;;;;;9.77;6.53;;;5.30;73.00;;;;;;10393720;28;20220;-75
2022/03/02 08:39:35;;;;;;;11.40;6.53;;;5.40;73.40;;;;;;10389262;28;20232;-75
2022/03/02 08:44:36;;;;;;;10.93;6.60;;;5.50;72.10;;;;;;10405074;28;20216;-75
2022/03/02 08:49:36;;;;;;;10.23;7.03;;;5.50;72.00;;;;;;10398489;28;20227;-75
2022/03/02 08:54:56;;;;;;;10.27;6.23;;;5.70;72.10;;;;;;10395247;28;20232;-76
2022/03/02 09:00:06;;;;;;;10.50;6.67;;;5.60;71.50;;;;;;10391154;28;20692;-75
2022/03/02 09:05:09;;;;;;;8.57;6.40;;;5.50;71.60;;;;;;10393418;28;20231;-75
2022/03/02 09:10:10;;;;;;;9.17;6.77;;;5.60;70.90;;;;;;10394238;28;20185;-74
2022/03/02 09:15:11;;;;;;;9.03;6.40;;;5.60;71.10;;;;;;10394620;28;20248;-74
2022/03/02 09:20:12;;;;;;;11.13;6.80;;;5.40;71.70;;;;;;10388031;28;20185;-75
2022/03/02 09:25:12;;;;;;;11.60;6.90;;;5.40;71.70;;;;;;10393538;28;20323;-74
2022/03/02 09:30:13;;;;;;;11.47;6.53;;;5.30;71.90;;;;;;10386878;28;20242;-75
2022/03/02 09:35:14;;;;;;;9.00;7.03;;;5.30;72.40;;;;;;10393347;28;20721;-74
2022/03/02 09:40:28;;;;;;;9.97;6.33;;;5.40;72.70;;;;;;10386779;28;20180;-75
2022/03/02 09:45:31;;;;;;;9.83;6.37;;;5.50;72.00;;;;;;10393051;28;20212;-75
2022/03/02 09:50:38;;;;;;;10.10;6.80;;;5.60;70.00;;;;;;10386591;28;20732;-74
2022/03/02 09:55:40;;;;;;;10.63;6.23;;;5.70;69.30;;;;;;10391061;28;20293;-75
2022/03/02 10:00:46;;;;;;;8.33;6.27;;;5.80;69.80;;;;;;10386481;28;20790;-75
2022/03/02 10:05:50;;;;;;;10.33;7.17;;;5.80;68.40;;;;;;10389142;28;20281;-75
2022/03/02 10:10:55;;;;;;;15.43;6.90;;;5.80;69.40;;;;;;10391871;28;20283;-76
2022/03/02 10:15:57;;;;;;;9.40;6.60;;;5.90;68.40;;;;;;10422180;28;20236;-75
2022/03/02 10:21:02;;;;;;;12.20;7.57;;;5.90;68.80;;;;;;10387032;28;20221;-75
2022/03/02 10:26:04;;;;;;;12.23;6.50;;;5.90;70.20;;;;;;10423230;28;20217;-75
2022/03/02 10:31:27;;;;;;;9.80;7.47;;;5.90;69.10;;;;;;10396815;28;20215;-74
2022/03/02 10:36:30;;;;;;;8.03;6.10;;;5.90;70.00;;;;;;10385119;28;20225;-75
2022/03/02 10:41:39;;;;;;;9.87;6.30;;;5.90;69.20;;;;;;10392318;28;20220;-75
2022/03/02 10:46:45;;;;;;;9.87;6.37;;;6.00;69.60;;;;;;10399938;28;20329;-75
2022/03/02 10:51:46;;;;;;;10.10;6.43;;;6.00;69.70;;;;;;10394805;28;20462;-74
2022/03/02 10:56:52;;;;;;;9.47;6.63;;;6.10;69.60;;;;;;10391090;28;20235;-74
2022/03/02 11:01:53;;;;;;;10.17;6.40;;;6.20;69.20;;;;;;10386667;28;20236;-74
2022/03/02 11:06:55;;;;;;;10.80;6.23;;;6.20;70.30;;;;;;10386791;28;20241;-75
2022/03/02 11:11:57;;;;;;;8.83;6.40;;;6.30;70.40;;;;;;10388783;28;20216;-75
2022/03/02 11:17:14;;;;;;;10.57;6.67;;;6.10;69.10;;;;;;10396181;28;20228;-75
2022/03/02 11:22:18;;;;;;;9.13;6.30;;;6.10;69.10;;;;;;10382501;28;20352;-74
2022/03/02 11:27:36;;;;;;;8.17;5.93;;;6.20;68.60;;;;;;10422601;28;20228;-75
2022/03/02 11:32:40;;;;;;;8.00;6.50;;;6.30;68.00;;;;;;10416787;28;20225;-75
2022/03/02 11:37:42;;;;;;;9.03;6.50;;;6.30;67.90;;;;;;10389357;28;20716;-75
2022/03/02 11:42:45;;;;;;;9.30;6.77;;;6.40;68.60;;;;;;10392534;28;20223;-76
2022/03/02 11:47:55;;;;;;;10.73;6.77;;;6.70;68.40;;;;;;10386671;28;20220;-75
2022/03/02 11:52:56;;;;;;;9.37;7.13;;;7.00;67.30;;;;;;10383472;28;20236;-74
2022/03/02 11:57:57;;;;;;;9.73;7.20;;;7.40;66.40;;;;;;10386554;28;20227;-75
2022/03/02 12:03:07;;;;;;;9.77;6.73;;;7.60;65.20;;;;;;10385179;28;20225;-75
2022/03/02 12:08:10;;;;;;;9.87;6.87;;;7.60;64.70;;;;;;10389180;28;20227;-75
2022/03/02 12:13:17;;;;;;;12.10;7.63;;;7.50;64.00;;;;;;10388534;28;20222;-75
2022/03/02 12:18:19;;;;;;;12.00;6.87;;;7.70;64.30;;;;;;10382423;28;20332;-75
2022/03/02 12:23:22;;;;;;;9.93;7.03;;;7.70;64.00;;;;;;10388389;28;20226;-75
2022/03/02 12:28:23;;;;;;;8.07;6.93;;;7.70;63.50;;;;;;10381961;28;20615;-75
2022/03/02 12:33:25;;;;;;;10.47;7.23;;;7.70;63.60;;;;;;10424945;28;20216;-75
2022/03/02 12:38:25;;;;;;;8.97;6.40;;;7.60;63.00;;;;;;10396003;28;20236;-75
2022/03/02 12:43:29;;;;;;;8.30;6.47;;;7.60;63.20;;;;;;10397378;28;20212;-75
2022/03/02 12:48:30;;;;;;;9.87;6.57;;;7.60;63.50;;;;;;10394947;28;20216;-75
2022/03/02 12:53:33;;;;;;;8.67;7.10;;;7.80;63.70;;;;;;10396924;28;20211;-75
2022/03/02 12:58:34;;;;;;;9.87;6.80;;;7.80;61.80;;;;;;10403090;28;20716;-76
2022/03/02 13:03:45;;;;;;;9.63;6.53;;;7.80;62.00;;;;;;10390241;28;20942;-76
2022/03/02 13:08:57;;;;;;;8.77;6.50;;;7.90;61.80;;;;;;10391293;28;20590;-75
2022/03/02 13:13:57;;;;;;;8.73;6.50;;;8.00;61.10;;;;;;10394304;28;20227;-76
2022/03/02 13:18:59;;;;;;;9.90;7.27;;;8.10;60.70;;;;;;10395868;28;20884;-76
2022/03/02 13:24:04;;;;;;;8.60;6.70;;;8.30;61.30;;;;;;10392088;28;20220;-76
2022/03/02 13:29:14;;;;;;;8.07;6.23;;;8.40;59.60;;;;;;10422075;28;20221;-76
2022/03/02 13:34:16;;;;;;;10.47;6.43;;;8.40;60.00;;;;;;10394468;28;20696;-75
2022/03/02 13:39:22;;;;;;;8.87;6.30;;;8.50;58.90;;;;;;10393502;28;20227;-76
2022/03/02 13:44:35;;;;;;;9.00;6.40;;;8.60;56.60;;;;;;10384917;28;20248;-75
2022/03/02 13:49:53;;;;;;;8.63;6.50;;;8.70;56.40;;;;;;10391238;28;20220;-75
2022/03/02 13:54:55;;;;;;;9.40;6.33;;;8.70;57.10;;;;;;10394390;28;20231;-75
2022/03/02 14:00:25;;;;;;;9.27;6.20;;;8.70;56.10;;;;;;10390634;28;20213;-76
2022/03/02 14:05:27;;;;;;;8.47;6.20;;;8.70;55.40;;;;;;10385427;28;20288;-76
2022/03/02 14:10:27;;;;;;;8.60;6.67;;;8.70;56.40;;;;;;10392499;28;20232;-75
2022/03/02 14:15:31;;;;;;;10.87;6.37;;;8.70;57.00;;;;;;10387056;28;20284;-74
2022/03/02 14:20:34;;;;;;;12.03;7.00;;;8.60;55.60;;;;;;10392057;28;20270;-76
2022/03/02 14:25:37;;;;;;;9.10;6.00;;;8.60;56.90;;;;;;10386180;28;20221;-75
2022/03/02 14:30:41;;;;;;;7.33;5.73;;;8.60;55.20;;;;;;10422521;28;20220;-75
2022/03/02 14:35:42;;;;;;;11.87;6.27;;;8.50;55.10;;;;;;10387090;28;20239;-75
2022/03/02 14:40:44;;;;;;;8.20;5.80;;;8.60;55.50;;;;;;10401205;28;20216;-76
2022/03/02 14:45:49;;;;;;;8.90;5.03;;;8.60;52.90;;;;;;10397312;28;20306;-75
2022/03/02 14:50:56;;;;;;;6.67;5.27;;;8.60;51.70;;;;;;10379297;28;20683;-75
2022/03/02 14:56:02;;;;;;;8.30;5.33;;;8.60;53.20;;;;;;10392962;28;20311;-75
2022/03/02 15:01:21;;;;;;;6.77;5.10;;;8.50;53.20;;;;;;10396970;28;20212;-75
2022/03/02 15:06:24;;;;;;;7.83;5.57;;;8.50;54.00;;;;;;10382199;28;20225;-76
2022/03/02 15:11:31;;;;;;;8.77;5.70;;;8.60;54.00;;;;;;10391144;28;20221;-75
2022/03/02 15:16:49;;;;;;;10.27;5.93;;;8.40;55.10;;;;;;10392964;28;20232;-75
2022/03/02 15:21:50;;;;;;;7.70;5.90;;;8.40;55.30;;;;;;10386960;28;20318;-75
2022/03/02 15:26:55;;;;;;;6.93;5.67;;;8.40;56.50;;;;;;10389929;28;20231;-75
2022/03/02 15:31:59;;;;;;;9.27;6.40;;;8.30;55.80;;;;;;10384876;28;20300;-75
2022/03/02 15:37:07;;;;;;;9.40;6.20;;;8.20;57.20;;;;;;10387167;28;20267;-76
2022/03/02 15:42:14;;;;;;;7.27;6.37;;;8.20;57.50;;;;;;10392020;28;20345;-75
2022/03/02 15:47:29;;;;;;;9.20;6.30;;;8.20;57.50;;;;;;10389263;28;20223;-75
2022/03/02 15:52:42;;;;;;;9.43;6.57;;;8.10;57.60;;;;;;10414758;28;20217;-75
2022/03/02 15:58:09;;;;;;;10.73;7.47;;;8.10;57.90;;;;;;10377640;28;20291;-75
2022/03/02 16:03:16;;;;;;;9.07;6.73;;;8.00;58.40;;;;;;10381468;28;20367;-75
2022/03/02 16:08:23;;;;;;;10.93;7.10;;;7.90;58.50;;;;;;10393048;28;20803;-75
2022/03/02 16:13:26;;;;;;;11.17;7.47;;;7.80;59.10;;;;;;10389953;28;20308;-75
2022/03/02 16:18:32;;;;;;;10.20;6.93;;;7.70;59.80;;;;;;10390165;28;20236;-75
2022/03/02 16:23:37;;;;;;;9.43;7.23;;;7.60;60.20;;;;;;10398442;28;20305;-75
2022/03/02 16:28:41;;;;;;;11.47;7.23;;;7.60;60.70;;;;;;10394699;28;20675;-76
2022/03/02 16:33:43;;;;;;;9.27;7.03;;;7.50;62.00;;;;;;10389179;28;20220;-75
2022/03/02 16:38:46;;;;;;;11.10;7.47;;;7.40;61.10;;;;;;10405841;28;20225;-76
2022/03/02 16:43:49;;;;;;;10.80;7.77;;;7.30;61.90;;;;;;10395449;28;20217;-75
2022/03/02 16:48:50;;;;;;;8.97;6.93;;;7.20;62.70;;;;;;10408224;28;20241;-75
2022/03/02 16:53:50;;;;;;;11.90;7.53;;;7.10;63.30;;;;;;10404960;28;20232;-76
2022/03/02 16:58:51;;;;;;;9.77;7.53;;;7.00;63.80;;;;;;10400107;28;20225;-75
2022/03/02 17:03:52;;;;;;;15.57;7.63;;;6.90;64.30;;;;;;10392437;28;20231;-75
2022/03/02 17:08:52;;;;;;;11.30;7.30;;;6.70;64.70;;;;;;10391446;28;20239;-74
2022/03/02 17:13:53;;;;;;;12.97;7.27;;;6.50;64.20;;;;;;10385713;28;20594;-75
2022/03/02 17:18:53;;;;;;;10.90;7.80;;;6.40;64.90;;;;;;10390450;28;20235;-75
2022/03/02 17:23:54;;;;;;;12.00;7.87;;;6.30;66.10;;;;;;10394335;28;20241;-74
2022/03/02 17:28:55;;;;;;;13.10;7.90;;;6.30;67.10;;;;;;10390606;28;20743;-75
2022/03/02 17:34:00;;;;;;;11.27;8.27;;;6.20;68.20;;;;;;10390126;28;20248;-74
2022/03/02 17:39:03;;;;;;;13.47;8.17;;;6.10;69.10;;;;;;10386681;28;20710;-74
2022/03/02 17:44:07;;;;;;;12.53;8.53;;;6.10;69.90;;;;;;10399264;28;20213;-74
2022/03/02 17:49:08;;;;;;;15.63;9.10;;;6.00;70.80;;;;;;10388278;28;20700;-75
2022/03/02 17:54:14;;;;;;;13.20;9.07;;;5.90;71.60;;;;;;10390697;28;20216;-75
2022/03/02 17:59:15;;;;;;;15.70;9.03;;;5.70;72.80;;;;;;10403415;28;20405;-74
2022/03/02 18:04:16;;;;;;;12.10;8.57;;;5.70;73.40;;;;;;10393089;28;20216;-74
2022/03/02 18:09:17;;;;;;;15.53;9.07;;;5.60;74.00;;;;;;10393762;28;20216;-74
2022/03/02 18:14:18;;;;;;;14.43;9.37;;;5.50;74.80;;;;;;10417340;28;20271;-74
2022/03/02 18:19:18;;;;;;;14.03;9.63;;;5.40;75.20;;;;;;10391242;28;20568;-75
2022/03/02 18:24:19;;;;;;;14.53;9.30;;;5.30;75.40;;;;;;10384912;28;20266;-74
2022/03/02 18:29:23;;;;;;;15.17;9.97;;;5.30;75.50;;;;;;10392467;28;20964;-75
2022/03/02 18:34:25;;;;;;;15.43;9.63;;;5.30;76.00;;;;;;10399291;28;20217;-74
2022/03/02 18:39:30;;;;;;;15.03;9.93;;;5.20;76.80;;;;;;10392711;28;20228;-74
2022/03/02 18:44:31;;;;;;;19.83;10.47;;;5.10;77.30;;;;;;10398260;28;20300;-74
2022/03/02 18:49:33;;;;;;;14.37;9.67;;;5.10;77.70;;;;;;10398060;28;20273;-75
2022/03/02 18:54:35;;;;;;;14.27;9.40;;;5.10;77.90;;;;;;10385107;28;20236;-74
2022/03/02 18:59:36;;;;;;;12.83;9.80;;;5.00;78.30;;;;;;10391843;28;20220;-74
2022/03/02 19:04:37;;;;;;;14.73;9.67;;;5.00;78.70;;;;;;10383324;28;20225;-73
2022/03/02 19:09:40;;;;;;;12.50;8.80;;;5.00;78.90;;;;;;10422758;28;20893;-73
2022/03/02 19:14:41;;;;;;;16.93;10.57;;;5.00;78.70;;;;;;10393592;28;20270;-74
2022/03/02 19:19:42;;;;;;;14.87;9.90;;;5.00;78.40;;;;;;10392067;28;20262;-74
2022/03/02 19:24:45;;;;;;;13.43;9.07;;;5.00;78.40;;;;;;10384376;28;20278;-73
2022/03/02 19:29:46;;;;;;;13.23;9.20;;;5.00;78.90;;;;;;10394242;28;20255;-74
2022/03/02 19:34:47;;;;;;;14.70;9.73;;;4.90;79.00;;;;;;10415413;28;20290;-75
2022/03/02 19:40:01;;;;;;;14.90;9.47;;;5.00;78.60;;;;;;10387536;28;20225;-74
2022/03/02 19:45:07;;;;;;;13.40;9.43;;;4.90;78.30;;;;;;10397950;28;20217;-76
2022/03/02 19:50:09;;;;;;;15.27;10.30;;;4.90;77.80;;;;;;10430592;28;20235;-76
2022/03/02 19:55:10;;;;;;;14.03;10.33;;;4.90;78.10;;;;;;10399619;28;20273;-76
2022/03/02 20:00:12;;;;;;;12.77;9.50;;;4.80;78.80;;;;;;10391694;28;20178;-76
2022/03/02 20:05:13;;;;;;;14.53;10.07;;;4.80;79.20;;;;;;10392212;28;20186;-76
2022/03/02 20:10:14;;;;;;;17.17;9.73;;;4.70;79.50;;;;;;10411218;28;20186;-76
2022/03/02 20:15:14;;;;;;;14.13;9.10;;;4.70;79.60;;;;;;10394390;28;20661;-75
2022/03/02 20:20:16;;;;;;;15.00;10.00;;;4.70;79.80;;;;;;10429902;28;20187;-76
2022/03/02 20:25:16;;;;;;;13.77;9.70;;;4.60;80.00;;;;;;10389251;28;20192;-76
2022/03/02 20:30:17;;;;;;;14.10;9.87;;;4.60;80.00;;;;;;10395096;28;20189;-77
2022/03/02 20:35:18;;;;;;;12.90;9.57;;;4.60;79.90;;;;;;10428735;28;20571;-76
2022/03/02 20:40:19;;;;;;;14.23;10.40;;;4.50;79.60;;;;;;10395931;28;20197;-76
2022/03/02 20:45:20;;;;;;;15.53;10.33;;;4.50;79.60;;;;;;10393848;28;20195;-76
2022/03/02 20:50:21;;;;;;;14.30;9.57;;;4.40;80.20;;;;;;10394971;28;20180;-76
2022/03/02 20:55:21;;;;;;;18.10;9.17;;;4.40;80.60;;;;;;10397477;28;20656;-77
2022/03/02 21:00:22;;;;;;;16.67;9.83;;;4.40;80.60;;;;;;10404607;28;20207;-74
2022/03/02 21:05:23;;;;;;;14.03;9.57;;;4.30;80.70;;;;;;10400584;28;20227;-74
2022/03/02 21:10:24;;;;;;;16.00;9.77;;;4.30;81.20;;;;;;10408319;28;20229;-74
2022/03/02 21:15:26;;;;;;;14.60;10.20;;;4.20;81.50;;;;;;10407369;28;20246;-74
2022/03/02 21:20:27;;;;;;;14.63;9.97;;;4.20;81.70;;;;;;10400849;28;20224;-74
2022/03/02 21:25:28;;;;;;;13.70;9.63;;;4.10;82.60;;;;;;10386061;28;20213;-74
2022/03/02 21:30:29;;;;;;;15.30;9.60;;;4.10;81.70;;;;;;10391842;28;20264;-74
2022/03/02 21:35:29;;;;;;;17.63;10.90;;;4.00;82.50;;;;;;10408703;28;20283;-74
2022/03/02 21:40:30;;;;;;;16.23;11.73;;;3.80;84.00;;;;;;10401275;28;20225;-74
2022/03/02 21:45:34;;;;;;;19.53;11.67;;;3.60;85.90;;;;;;10390905;28;20470;-76
2022/03/02 21:50:40;;;;;;;15.47;10.33;;;3.50;86.60;;;;;;10396433;28;20212;-75
2022/03/02 21:55:41;;;;;;;16.57;11.83;;;3.40;87.00;;;;;;10403389;28;20232;-78
2022/03/02 22:00:47;;;;;;;16.37;10.97;;;3.30;87.80;;;;;;10392561;28;20355;-77
2022/03/02 22:05:49;;;;;;;15.70;11.60;;;3.30;87.80;;;;;;10396364;28;20789;-78
2022/03/02 22:10:52;;;;;;;18.50;10.73;;;3.30;89.70;;;;;;10399042;28;20259;-77
2022/03/02 22:15:53;;;;;;;16.53;12.10;;;3.30;90.00;;;;;;10393603;28;20630;-78
2022/03/02 22:20:54;;;;;;;20.33;12.13;;;3.10;90.70;;;;;;10393193;28;20221;-77
2022/03/02 22:25:55;;;;;;;24.90;15.67;;;3.00;91.00;;;;;;10395424;28;20287;-76
2022/03/02 22:30:56;;;;;;;21.07;15.07;;;2.90;91.30;;;;;;10390927;28;20219;-76
2022/03/02 22:35:56;;;;;;;18.90;13.60;;;2.80;92.10;;;;;;10399000;28;20252;-76
2022/03/02 22:40:57;;;;;;;18.40;12.97;;;2.60;93.60;;;;;;10385062;28;20261;-76
2022/03/02 22:46:02;;;;;;;20.03;13.30;;;2.60;94.10;;;;;;10391055;28;20248;-75
2022/03/02 22:51:03;;;;;;;19.30;13.17;;;2.50;94.70;;;;;;10393385;28;20216;-75
2022/03/02 22:56:04;;;;;;;19.60;13.27;;;2.40;95.80;;;;;;10398527;28;20227;-76
2022/03/02 23:01:19;;;;;;;18.20;11.47;;;2.40;97.00;;;;;;10392376;28;20282;-77
2022/03/02 23:22:18;;;;;;;19.70;12.47;;;2.20;99.90;;;;;;10393173;28;20695;-75
2022/03/02 23:27:19;;;;;;;18.67;12.70;;;2.10;99.90;;;;;;10385355;28;20221;-76
2022/03/02 23:32:23;;;;;;;18.67;12.80;;;2.10;99.90;;;;;;10384902;28;20221;-75
2022/03/02 23:37:23;;;;;;;19.03;12.83;;;2.00;99.90;;;;;;10393441;28;20947;-76
2022/03/02 23:42:25;;;;;;;20.70;13.83;;;2.00;99.90;;;;;;10399463;28;20308;-76
2022/03/02 23:47:26;;;;;;;18.63;12.57;;;2.00;99.90;;;;;;10391656;28;20224;-77
2022/03/02 23:52:27;;;;;;;21.40;13.33;;;2.00;99.90;;;;;;10407983;28;20217;-77
2022/03/02 23:57:27;;;;;;;21.00;13.03;;;1.80;99.90;;;;;;10393154;28;20229;-76
